createdAt,value
2022-08-25T00:04:36.674Z,99.90
2022-08-25T00:10:40.047Z,99.90
2022-08-25T00:16:43.412Z,99.90
2022-08-25T00:22:45.403Z,99.90
2022-08-25T00:28:47.365Z,99.90
2022-08-25T00:34:49.412Z,99.90
2022-08-25T00:41:05.842Z,99.90
2022-08-25T00:47:09.922Z,99.90
2022-08-25T00:53:12.297Z,99.90
2022-08-25T00:59:16.423Z,99.90
2022-08-25T01:05:19.633Z,99.90
2022-08-25T01:11:21.818Z,99.90
2022-08-25T01:17:27.844Z,99.90
2022-08-25T01:23:30.144Z,99.90
2022-08-25T01:29:33.080Z,99.90
2022-08-25T01:35:36.455Z,99.90
2022-08-25T01:42:11.656Z,99.90
2022-08-25T01:48:15.422Z,99.90
2022-08-25T01:54:17.750Z,99.90
2022-08-25T02:00:21.315Z,99.90
2022-08-25T02:06:32.482Z,99.90
2022-08-25T02:12:36.740Z,99.90
2022-08-25T02:18:38.695Z,99.90
2022-08-25T02:24:40.663Z,99.90
2022-08-25T02:30:43.571Z,99.90
2022-08-25T02:36:45.681Z,99.90
2022-08-25T02:42:49.905Z,99.90
2022-08-25T02:48:53.305Z,99.90
2022-08-25T02:54:55.543Z,99.90
2022-08-25T03:00:57.777Z,99.90
2022-08-25T03:06:59.982Z,99.90
2022-08-25T03:13:02.007Z,99.90
2022-08-25T03:19:04.944Z,99.90
2022-08-25T03:25:28.010Z,99.90
2022-08-25T03:31:30.014Z,99.90
2022-08-25T03:37:32.101Z,99.90
2022-08-25T03:43:34.081Z,99.90
2022-08-25T03:49:36.049Z,99.90
2022-08-25T03:55:38.049Z,99.90
2022-08-25T04:01:43.050Z,99.90
2022-08-25T04:07:45.036Z,99.90
2022-08-25T04:13:48.137Z,99.90
2022-08-25T04:19:50.750Z,99.90
2022-08-25T04:25:53.030Z,99.90
2022-08-25T04:31:55.812Z,99.90
2022-08-25T04:37:57.947Z,99.90
2022-08-25T04:44:01.306Z,99.90
2022-08-25T04:50:03.787Z,99.90
2022-08-25T04:56:09.697Z,99.90
2022-08-25T05:02:11.634Z,99.90
2022-08-25T05:08:13.778Z,99.90
2022-08-25T05:14:21.649Z,99.90
2022-08-25T05:20:27.720Z,99.90
2022-08-25T05:26:32.466Z,99.90
2022-08-25T05:32:34.452Z,99.90
2022-08-25T05:38:37.818Z,99.90
2022-08-25T05:44:42.919Z,99.90
2022-08-25T05:50:55.885Z,99.90
2022-08-25T05:56:58.606Z,99.90
2022-08-25T06:03:01.162Z,99.90
2022-08-25T06:09:06.493Z,99.90
2022-08-25T06:15:09.606Z,99.90
2022-08-25T06:21:14.520Z,99.90
2022-08-25T06:27:16.627Z,99.90
2022-08-25T06:33:18.961Z,99.90
2022-08-25T06:39:21.765Z,99.90
2022-08-25T06:45:24.892Z,99.90
2022-08-25T06:51:27.572Z,99.90
2022-08-25T06:57:29.712Z,99.90
2022-08-25T07:03:33.217Z,99.90
2022-08-25T07:09:38.670Z,99.90
2022-08-25T07:15:43.818Z,99.90
2022-08-25T07:21:49.893Z,99.90
2022-08-25T07:27:56.983Z,99.90
2022-08-25T07:34:19.536Z,99.90
2022-08-25T07:40:32.361Z,99.90
2022-08-25T07:46:34.953Z,99.90
2022-08-25T07:52:37.119Z,99.90
2022-08-25T07:58:42.199Z,99.90
2022-08-25T08:04:45.387Z,99.90
2022-08-25T08:11:03.161Z,99.90
2022-08-25T08:17:09.485Z,99.90
2022-08-25T08:23:12.473Z,99.90
2022-08-25T08:29:15.068Z,99.90
2022-08-25T08:35:18.979Z,99.90
2022-08-25T08:42:17.344Z,99.90
2022-08-25T08:48:46.992Z,99.90
2022-08-25T08:54:56.872Z,99.90
2022-08-25T09:00:59.581Z,99.90
2022-08-25T09:07:11.035Z,99.90
2022-08-25T09:13:48.792Z,99.90
2022-08-25T09:20:29.430Z,99.90
2022-08-25T09:26:58.928Z,99.90
2022-08-25T09:33:05.255Z,99.90
2022-08-25T09:39:07.969Z,99.90
2022-08-25T09:45:14.845Z,99.90
2022-08-25T09:51:38.190Z,99.90
2022-08-25T09:57:52.939Z,99.90
2022-08-25T10:04:05.546Z,99.90
2022-08-25T10:10:41.979Z,99.90
2022-08-25T10:16:46.944Z,99.90
2022-08-25T10:22:51.380Z,99.90
2022-08-25T10:29:06.304Z,99.90
2022-08-25T10:35:32.418Z,99.90
2022-08-25T10:41:53.436Z,99.90
2022-08-25T10:48:41.894Z,99.90
2022-08-25T10:54:57.571Z,99.90
2022-08-25T11:01:18.855Z,99.90
2022-08-25T11:07:40.484Z,99.90
2022-08-25T11:14:09.194Z,99.90
2022-08-25T11:20:27.132Z,99.90
2022-08-25T11:26:36.856Z,99.90
2022-08-25T11:32:44.308Z,99.90
2022-08-25T11:39:11.565Z,99.90
2022-08-25T11:45:19.191Z,99.90
2022-08-25T11:51:45.128Z,99.90
2022-08-25T11:57:53.641Z,99.90
2022-08-25T12:04:34.111Z,99.90
2022-08-25T12:11:11.161Z,99.90
2022-08-25T12:17:25.410Z,99.90
2022-08-25T12:23:36.645Z,99.20
2022-08-25T12:29:47.215Z,95.50
2022-08-25T12:35:57.939Z,94.60
2022-08-25T12:42:12.768Z,93.60
2022-08-25T12:48:27.008Z,92.20
2022-08-25T12:55:11.485Z,93.60
2022-08-25T13:01:54.578Z,91.60
2022-08-25T13:08:15.954Z,90.70
2022-08-25T13:14:34.771Z,89.60
2022-08-25T13:20:40.308Z,88.60
2022-08-25T13:26:52.730Z,82.50
2022-08-25T13:32:54.858Z,79.90
2022-08-25T13:39:45.546Z,75.70
2022-08-25T13:45:50.543Z,76.90
2022-08-25T13:51:55.137Z,73.90
2022-08-25T13:57:59.335Z,75.90
2022-08-25T14:04:50.887Z,76.00
2022-08-25T14:11:14.897Z,81.80
2022-08-25T14:17:36.314Z,82.80
2022-08-25T14:23:40.772Z,88.60
2022-08-25T14:29:42.759Z,91.50
2022-08-25T14:35:53.747Z,92.00
2022-08-25T14:41:55.987Z,89.60
2022-08-25T14:48:10.418Z,83.80
2022-08-25T14:54:18.442Z,79.60
2022-08-25T15:00:21.247Z,80.40
2022-08-25T15:06:29.365Z,77.30
2022-08-25T15:12:46.526Z,76.60
2022-08-25T15:18:50.376Z,77.80
2022-08-25T15:24:52.786Z,79.30
2022-08-25T15:30:54.783Z,77.10
2022-08-25T15:36:58.469Z,79.20
2022-08-25T15:43:01.617Z,80.20
2022-08-25T15:49:05.324Z,82.50
2022-08-25T15:55:11.619Z,82.70
2022-08-25T16:01:19.711Z,82.30
2022-08-25T16:07:21.871Z,83.40
2022-08-25T16:13:24.532Z,79.60
2022-08-25T16:19:29.348Z,81.30
2022-08-25T16:25:32.342Z,83.90
2022-08-25T16:31:34.593Z,85.30
2022-08-25T16:37:36.795Z,87.60
2022-08-25T16:43:39.645Z,89.10
2022-08-25T16:49:42.377Z,90.10
2022-08-25T16:55:45.427Z,88.30
2022-08-25T17:01:47.528Z,91.40
2022-08-25T17:08:09.480Z,93.90
2022-08-25T17:14:18.169Z,91.80
2022-08-25T17:20:20.861Z,91.90
2022-08-25T17:26:27.995Z,91.10
2022-08-25T17:32:31.000Z,90.90
2022-08-25T17:38:33.778Z,92.30
2022-08-25T17:44:35.744Z,92.80
2022-08-25T17:50:40.661Z,94.90
2022-08-25T17:56:42.714Z,97.60
2022-08-25T18:02:45.326Z,99.30
2022-08-25T18:08:51.266Z,99.90
2022-08-25T18:14:54.996Z,99.90
2022-08-25T18:20:57.150Z,99.90
2022-08-25T18:26:59.350Z,99.90
2022-08-25T18:33:01.897Z,99.90
2022-08-25T18:39:23.597Z,99.90
2022-08-25T18:45:48.015Z,99.90
2022-08-25T18:51:50.405Z,99.90
2022-08-25T18:57:52.617Z,99.90
2022-08-25T19:03:54.615Z,99.90
2022-08-25T19:09:56.660Z,99.90
2022-08-25T19:15:59.398Z,99.90
2022-08-25T19:22:01.592Z,99.90
2022-08-25T19:28:09.081Z,99.90
2022-08-25T19:34:21.712Z,99.90
2022-08-25T19:40:25.341Z,99.90
2022-08-25T19:46:37.383Z,99.90
2022-08-25T19:52:40.280Z,99.90
2022-08-25T19:58:44.597Z,99.90
2022-08-25T20:04:50.331Z,99.90
2022-08-25T20:10:53.042Z,99.90
2022-08-25T20:16:58.734Z,99.90
2022-08-25T20:23:19.553Z,99.90
2022-08-25T20:29:21.627Z,99.90
2022-08-25T20:35:28.167Z,99.90
2022-08-25T20:41:30.148Z,99.90
2022-08-25T20:47:32.332Z,99.90
2022-08-25T20:53:37.194Z,99.90
2022-08-25T20:59:39.188Z,99.90
2022-08-25T21:05:43.262Z,99.90
2022-08-25T21:11:46.848Z,99.90
2022-08-25T21:17:54.478Z,99.90
2022-08-25T21:23:56.725Z,99.90
2022-08-25T21:29:59.808Z,99.90
2022-08-25T21:36:02.057Z,99.90
2022-08-25T21:42:07.161Z,99.90
2022-08-25T21:48:10.758Z,99.90
2022-08-25T21:54:18.226Z,99.90
2022-08-25T22:00:26.135Z,99.90
2022-08-25T22:06:29.465Z,99.90
2022-08-25T22:12:31.446Z,99.90
2022-08-25T22:18:33.468Z,99.90
2022-08-25T22:24:35.630Z,99.90
2022-08-25T22:30:38.776Z,99.90
2022-08-25T22:36:42.903Z,99.90
2022-08-25T22:42:48.050Z,99.90
2022-08-25T22:48:51.656Z,99.90
2022-08-25T22:54:54.583Z,99.90
2022-08-25T23:00:58.382Z,99.90
2022-08-25T23:07:00.485Z,99.90
2022-08-25T23:13:02.493Z,99.90
2022-08-25T23:19:13.753Z,99.90
2022-08-25T23:25:17.117Z,99.90
2022-08-25T23:31:20.173Z,99.90
2022-08-25T23:37:23.123Z,99.90
2022-08-25T23:43:25.731Z,99.90
2022-08-25T23:49:27.732Z,99.90
2022-08-25T23:55:34.014Z,99.90
